sensor_id;sensor_type;location;lat;lon;timestamp;P1;durP1;ratioP1;P2;durP2;ratioP2
10469;SDS011;5282;47.052;15.458;2022-12-10T00:02:15;40.50;;;25.27;;
10469;SDS011;5282;47.052;15.458;2022-12-10T00:04:44;39.37;;;24.60;;
10469;SDS011;5282;47.052;15.458;2022-12-10T00:07:11;40.27;;;26.07;;
10469;SDS011;5282;47.052;15.458;2022-12-10T00:09:39;46.17;;;26.23;;
10469;SDS011;5282;47.052;15.458;2022-12-10T00:12:08;51.90;;;27.73;;
10469;SDS011;5282;47.052;15.458;2022-12-10T00:14:35;46.27;;;27.20;;
10469;SDS011;5282;47.052;15.458;2022-12-10T00:17:03;44.90;;;27.50;;
10469;SDS011;5282;47.052;15.458;2022-12-10T00:19:31;48.07;;;26.50;;
10469;SDS011;5282;47.052;15.458;2022-12-10T00:21:57;52.80;;;28.33;;
10469;SDS011;5282;47.052;15.458;2022-12-10T00:24:25;60.83;;;31.63;;
10469;SDS011;5282;47.052;15.458;2022-12-10T00:26:53;60.53;;;31.60;;
10469;SDS011;5282;47.052;15.458;2022-12-10T00:29:21;53.70;;;28.93;;
10469;SDS011;5282;47.052;15.458;2022-12-10T00:31:48;52.70;;;30.07;;
10469;SDS011;5282;47.052;15.458;2022-12-10T00:34:15;56.20;;;29.30;;
10469;SDS011;5282;47.052;15.458;2022-12-10T00:36:42;60.10;;;29.27;;
10469;SDS011;5282;47.052;15.458;2022-12-10T00:39:12;63.47;;;31.30;;
10469;SDS011;5282;47.052;15.458;2022-12-10T00:41:40;61.53;;;31.33;;
10469;SDS011;5282;47.052;15.458;2022-12-10T00:44:09;56.67;;;29.57;;
10469;SDS011;5282;47.052;15.458;2022-12-10T00:46:36;57.40;;;29.80;;
10469;SDS011;5282;47.052;15.458;2022-12-10T00:49:03;55.03;;;28.73;;
10469;SDS011;5282;47.052;15.458;2022-12-10T00:51:30;54.30;;;30.27;;
10469;SDS011;5282;47.052;15.458;2022-12-10T00:53:57;58.50;;;29.60;;
10469;SDS011;5282;47.052;15.458;2022-12-10T00:56:27;54.00;;;28.67;;
10469;SDS011;5282;47.052;15.458;2022-12-10T00:58:56;51.47;;;28.37;;
10469;SDS011;5282;47.052;15.458;2022-12-10T01:01:25;63.10;;;30.33;;
10469;SDS011;5282;47.052;15.458;2022-12-10T01:03:54;51.37;;;28.53;;
10469;SDS011;5282;47.052;15.458;2022-12-10T01:06:23;55.03;;;29.17;;
10469;SDS011;5282;47.052;15.458;2022-12-10T01:08:51;55.23;;;29.90;;
10469;SDS011;5282;47.052;15.458;2022-12-10T01:11:20;50.80;;;27.77;;
10469;SDS011;5282;47.052;15.458;2022-12-10T01:13:51;55.57;;;29.43;;
10469;SDS011;5282;47.052;15.458;2022-12-10T01:16:19;53.20;;;29.33;;
10469;SDS011;5282;47.052;15.458;2022-12-10T01:18:49;49.73;;;28.53;;
10469;SDS011;5282;47.052;15.458;2022-12-10T01:21:19;51.80;;;28.77;;
10469;SDS011;5282;47.052;15.458;2022-12-10T01:23:47;56.20;;;29.73;;
10469;SDS011;5282;47.052;15.458;2022-12-10T01:26:15;53.53;;;28.43;;
10469;SDS011;5282;47.052;15.458;2022-12-10T01:28:43;53.70;;;28.83;;
10469;SDS011;5282;47.052;15.458;2022-12-10T01:31:11;59.50;;;30.10;;
10469;SDS011;5282;47.052;15.458;2022-12-10T01:33:40;64.43;;;30.10;;
10469;SDS011;5282;47.052;15.458;2022-12-10T01:36:09;56.63;;;28.97;;
10469;SDS011;5282;47.052;15.458;2022-12-10T01:38:37;61.40;;;30.67;;
10469;SDS011;5282;47.052;15.458;2022-12-10T01:41:05;58.73;;;31.67;;
10469;SDS011;5282;47.052;15.458;2022-12-10T01:43:48;55.97;;;29.60;;
10469;SDS011;5282;47.052;15.458;2022-12-10T01:46:19;64.03;;;33.10;;
10469;SDS011;5282;47.052;15.458;2022-12-10T01:48:46;60.03;;;30.27;;
10469;SDS011;5282;47.052;15.458;2022-12-10T01:51:15;56.27;;;30.67;;
10469;SDS011;5282;47.052;15.458;2022-12-10T01:53:43;59.60;;;31.87;;
10469;SDS011;5282;47.052;15.458;2022-12-10T01:56:11;59.27;;;30.60;;
10469;SDS011;5282;47.052;15.458;2022-12-10T01:58:42;56.57;;;30.23;;
10469;SDS011;5282;47.052;15.458;2022-12-10T02:01:11;63.73;;;31.60;;
10469;SDS011;5282;47.052;15.458;2022-12-10T02:03:44;63.40;;;32.97;;
10469;SDS011;5282;47.052;15.458;2022-12-10T02:06:24;59.83;;;32.87;;
10469;SDS011;5282;47.052;15.458;2022-12-10T02:09:00;66.80;;;32.47;;
10469;SDS011;5282;47.052;15.458;2022-12-10T02:11:36;56.83;;;30.53;;
10469;SDS011;5282;47.052;15.458;2022-12-10T02:14:10;57.37;;;31.00;;
10469;SDS011;5282;47.052;15.458;2022-12-10T02:16:43;60.30;;;31.57;;
10469;SDS011;5282;47.052;15.458;2022-12-10T02:19:15;61.27;;;31.07;;
10469;SDS011;5282;47.052;15.458;2022-12-10T02:21:50;55.93;;;30.47;;
10469;SDS011;5282;47.052;15.458;2022-12-10T02:24:20;60.07;;;30.67;;
10469;SDS011;5282;47.052;15.458;2022-12-10T02:26:52;60.33;;;31.50;;
10469;SDS011;5282;47.052;15.458;2022-12-10T02:29:26;61.87;;;31.10;;
10469;SDS011;5282;47.052;15.458;2022-12-10T02:31:55;57.03;;;29.90;;
10469;SDS011;5282;47.052;15.458;2022-12-10T02:34:27;58.67;;;31.57;;
10469;SDS011;5282;47.052;15.458;2022-12-10T02:36:59;58.10;;;31.73;;
10469;SDS011;5282;47.052;15.458;2022-12-10T02:39:33;54.67;;;30.43;;
10469;SDS011;5282;47.052;15.458;2022-12-10T02:42:04;56.20;;;30.43;;
10469;SDS011;5282;47.052;15.458;2022-12-10T02:44:36;56.97;;;29.73;;
10469;SDS011;5282;47.052;15.458;2022-12-10T02:47:06;53.00;;;29.43;;
10469;SDS011;5282;47.052;15.458;2022-12-10T02:49:39;49.97;;;30.07;;
10469;SDS011;5282;47.052;15.458;2022-12-10T02:52:08;48.87;;;29.83;;
10469;SDS011;5282;47.052;15.458;2022-12-10T02:54:39;51.67;;;29.10;;
10469;SDS011;5282;47.052;15.458;2022-12-10T02:57:15;54.80;;;30.17;;
10469;SDS011;5282;47.052;15.458;2022-12-10T03:00:00;50.43;;;28.50;;
10469;SDS011;5282;47.052;15.458;2022-12-10T03:02:33;49.33;;;28.70;;
10469;SDS011;5282;47.052;15.458;2022-12-10T03:05:09;41.93;;;27.10;;
10469;SDS011;5282;47.052;15.458;2022-12-10T03:07:44;46.67;;;28.17;;
10469;SDS011;5282;47.052;15.458;2022-12-10T03:10:17;52.17;;;29.80;;
10469;SDS011;5282;47.052;15.458;2022-12-10T03:12:53;46.70;;;28.63;;
10469;SDS011;5282;47.052;15.458;2022-12-10T03:15:25;46.20;;;28.43;;
10469;SDS011;5282;47.052;15.458;2022-12-10T03:17:53;53.80;;;29.23;;
10469;SDS011;5282;47.052;15.458;2022-12-10T03:20:25;55.27;;;29.10;;
10469;SDS011;5282;47.052;15.458;2022-12-10T03:22:53;55.70;;;28.90;;
10469;SDS011;5282;47.052;15.458;2022-12-10T03:25:24;50.37;;;28.80;;
10469;SDS011;5282;47.052;15.458;2022-12-10T03:27:55;52.93;;;29.97;;
10469;SDS011;5282;47.052;15.458;2022-12-10T03:30:25;53.40;;;30.10;;
10469;SDS011;5282;47.052;15.458;2022-12-10T03:32:53;50.30;;;29.63;;
10469;SDS011;5282;47.052;15.458;2022-12-10T03:35:20;57.10;;;29.83;;
10469;SDS011;5282;47.052;15.458;2022-12-10T03:37:49;53.03;;;29.27;;
10469;SDS011;5282;47.052;15.458;2022-12-10T03:40:18;51.57;;;28.43;;
10469;SDS011;5282;47.052;15.458;2022-12-10T03:42:50;57.57;;;30.60;;
10469;SDS011;5282;47.052;15.458;2022-12-10T03:45:17;50.07;;;29.97;;
10469;SDS011;5282;47.052;15.458;2022-12-10T03:47:45;53.93;;;30.53;;
10469;SDS011;5282;47.052;15.458;2022-12-10T03:50:14;55.27;;;30.27;;
10469;SDS011;5282;47.052;15.458;2022-12-10T03:52:41;57.20;;;30.67;;
10469;SDS011;5282;47.052;15.458;2022-12-10T03:55:08;53.57;;;30.77;;
10469;SDS011;5282;47.052;15.458;2022-12-10T03:57:36;51.97;;;30.03;;
10469;SDS011;5282;47.052;15.458;2022-12-10T04:00:03;50.00;;;30.17;;
10469;SDS011;5282;47.052;15.458;2022-12-10T04:02:31;52.13;;;29.33;;
10469;SDS011;5282;47.052;15.458;2022-12-10T04:05:00;56.77;;;30.33;;
10469;SDS011;5282;47.052;15.458;2022-12-10T04:07:27;56.50;;;29.20;;
10469;SDS011;5282;47.052;15.458;2022-12-10T04:09:54;49.23;;;28.77;;
10469;SDS011;5282;47.052;15.458;2022-12-10T04:12:21;49.20;;;28.23;;
10469;SDS011;5282;47.052;15.458;2022-12-10T04:14:48;48.70;;;29.63;;
10469;SDS011;5282;47.052;15.458;2022-12-10T04:17:33;52.53;;;28.90;;
10469;SDS011;5282;47.052;15.458;2022-12-10T04:20:01;46.27;;;29.33;;
10469;SDS011;5282;47.052;15.458;2022-12-10T04:22:29;48.27;;;27.77;;
10469;SDS011;5282;47.052;15.458;2022-12-10T04:25:25;45.77;;;28.00;;
10469;SDS011;5282;47.052;15.458;2022-12-10T04:28:10;53.03;;;28.13;;
10469;SDS011;5282;47.052;15.458;2022-12-10T04:30:36;45.20;;;27.77;;
10469;SDS011;5282;47.052;15.458;2022-12-10T04:33:03;43.23;;;26.00;;
10469;SDS011;5282;47.052;15.458;2022-12-10T04:35:31;50.23;;;27.80;;
10469;SDS011;5282;47.052;15.458;2022-12-10T04:37:58;46.67;;;27.13;;
10469;SDS011;5282;47.052;15.458;2022-12-10T04:40:25;43.97;;;27.10;;
10469;SDS011;5282;47.052;15.458;2022-12-10T04:42:52;41.17;;;26.23;;
10469;SDS011;5282;47.052;15.458;2022-12-10T04:45:19;44.37;;;26.20;;
10469;SDS011;5282;47.052;15.458;2022-12-10T04:47:48;41.93;;;26.10;;
10469;SDS011;5282;47.052;15.458;2022-12-10T04:50:15;42.00;;;25.13;;
10469;SDS011;5282;47.052;15.458;2022-12-10T04:52:43;41.80;;;25.93;;
10469;SDS011;5282;47.052;15.458;2022-12-10T04:55:10;43.00;;;26.70;;
10469;SDS011;5282;47.052;15.458;2022-12-10T04:57:37;41.17;;;25.97;;
10469;SDS011;5282;47.052;15.458;2022-12-10T05:00:04;40.80;;;25.23;;
10469;SDS011;5282;47.052;15.458;2022-12-10T05:02:31;41.13;;;25.93;;
10469;SDS011;5282;47.052;15.458;2022-12-10T05:04:58;40.33;;;24.60;;
10469;SDS011;5282;47.052;15.458;2022-12-10T05:07:25;34.87;;;24.50;;
10469;SDS011;5282;47.052;15.458;2022-12-10T05:09:53;40.33;;;24.67;;
10469;SDS011;5282;47.052;15.458;2022-12-10T05:12:20;38.70;;;24.33;;
10469;SDS011;5282;47.052;15.458;2022-12-10T05:14:47;33.50;;;23.97;;
10469;SDS011;5282;47.052;15.458;2022-12-10T05:17:14;34.13;;;24.20;;
10469;SDS011;5282;47.052;15.458;2022-12-10T05:19:41;39.43;;;23.87;;
10469;SDS011;5282;47.052;15.458;2022-12-10T05:22:07;36.83;;;23.60;;
10469;SDS011;5282;47.052;15.458;2022-12-10T05:24:53;39.13;;;23.70;;
10469;SDS011;5282;47.052;15.458;2022-12-10T05:27:20;36.53;;;23.80;;
10469;SDS011;5282;47.052;15.458;2022-12-10T05:29:47;39.40;;;24.27;;
10469;SDS011;5282;47.052;15.458;2022-12-10T05:32:14;35.33;;;23.93;;
10469;SDS011;5282;47.052;15.458;2022-12-10T05:34:41;34.63;;;22.80;;
10469;SDS011;5282;47.052;15.458;2022-12-10T05:37:08;38.23;;;23.83;;
10469;SDS011;5282;47.052;15.458;2022-12-10T05:39:35;35.30;;;24.33;;
10469;SDS011;5282;47.052;15.458;2022-12-10T05:42:03;38.90;;;23.77;;
10469;SDS011;5282;47.052;15.458;2022-12-10T05:44:30;36.63;;;23.30;;
10469;SDS011;5282;47.052;15.458;2022-12-10T05:46:57;34.13;;;22.27;;
10469;SDS011;5282;47.052;15.458;2022-12-10T05:49:24;31.27;;;23.10;;
10469;SDS011;5282;47.052;15.458;2022-12-10T05:51:51;33.97;;;23.60;;
10469;SDS011;5282;47.052;15.458;2022-12-10T05:54:21;32.40;;;22.00;;
10469;SDS011;5282;47.052;15.458;2022-12-10T05:56:48;35.47;;;23.40;;
10469;SDS011;5282;47.052;15.458;2022-12-10T05:59:17;32.83;;;23.17;;
10469;SDS011;5282;47.052;15.458;2022-12-10T06:01:44;32.63;;;22.90;;
10469;SDS011;5282;47.052;15.458;2022-12-10T06:04:11;36.13;;;23.87;;
10469;SDS011;5282;47.052;15.458;2022-12-10T06:06:39;32.17;;;22.53;;
10469;SDS011;5282;47.052;15.458;2022-12-10T06:09:07;32.60;;;22.47;;
10469;SDS011;5282;47.052;15.458;2022-12-10T06:11:37;32.37;;;21.83;;
10469;SDS011;5282;47.052;15.458;2022-12-10T06:14:04;32.20;;;22.37;;
10469;SDS011;5282;47.052;15.458;2022-12-10T06:16:32;36.43;;;22.73;;
10469;SDS011;5282;47.052;15.458;2022-12-10T06:18:59;31.93;;;22.80;;
10469;SDS011;5282;47.052;15.458;2022-12-10T06:21:26;31.20;;;22.07;;
10469;SDS011;5282;47.052;15.458;2022-12-10T06:23:53;33.23;;;22.03;;
10469;SDS011;5282;47.052;15.458;2022-12-10T06:26:21;31.63;;;22.70;;
10469;SDS011;5282;47.052;15.458;2022-12-10T06:28:50;30.97;;;22.07;;
10469;SDS011;5282;47.052;15.458;2022-12-10T06:31:18;35.67;;;24.73;;
10469;SDS011;5282;47.052;15.458;2022-12-10T06:33:47;38.10;;;27.50;;
10469;SDS011;5282;47.052;15.458;2022-12-10T06:36:17;39.47;;;25.93;;
10469;SDS011;5282;47.052;15.458;2022-12-10T06:38:44;31.93;;;23.40;;
10469;SDS011;5282;47.052;15.458;2022-12-10T06:41:12;36.40;;;24.97;;
10469;SDS011;5282;47.052;15.458;2022-12-10T06:43:40;33.47;;;24.50;;
10469;SDS011;5282;47.052;15.458;2022-12-10T06:46:10;35.40;;;25.43;;
10469;SDS011;5282;47.052;15.458;2022-12-10T06:48:38;35.70;;;25.23;;
10469;SDS011;5282;47.052;15.458;2022-12-10T06:51:07;30.13;;;23.07;;
10469;SDS011;5282;47.052;15.458;2022-12-10T06:53:36;32.97;;;24.07;;
10469;SDS011;5282;47.052;15.458;2022-12-10T06:56:04;32.77;;;23.83;;
10469;SDS011;5282;47.052;15.458;2022-12-10T06:58:33;31.30;;;23.10;;
10469;SDS011;5282;47.052;15.458;2022-12-10T07:01:04;36.07;;;25.40;;
10469;SDS011;5282;47.052;15.458;2022-12-10T07:03:32;33.20;;;24.77;;
10469;SDS011;5282;47.052;15.458;2022-12-10T07:05:59;36.43;;;25.80;;
10469;SDS011;5282;47.052;15.458;2022-12-10T07:08:28;33.10;;;23.93;;
10469;SDS011;5282;47.052;15.458;2022-12-10T07:10:56;36.43;;;25.80;;
10469;SDS011;5282;47.052;15.458;2022-12-10T07:13:23;33.43;;;25.53;;
10469;SDS011;5282;47.052;15.458;2022-12-10T07:15:53;34.33;;;25.50;;
10469;SDS011;5282;47.052;15.458;2022-12-10T07:18:22;34.17;;;24.27;;
10469;SDS011;5282;47.052;15.458;2022-12-10T07:20:48;33.90;;;23.40;;
10469;SDS011;5282;47.052;15.458;2022-12-10T07:23:15;29.77;;;23.07;;
10469;SDS011;5282;47.052;15.458;2022-12-10T07:25:44;30.90;;;22.73;;
10469;SDS011;5282;47.052;15.458;2022-12-10T07:28:11;31.53;;;22.47;;
10469;SDS011;5282;47.052;15.458;2022-12-10T07:30:38;27.37;;;20.97;;
10469;SDS011;5282;47.052;15.458;2022-12-10T07:33:05;29.77;;;21.80;;
10469;SDS011;5282;47.052;15.458;2022-12-10T07:35:31;28.50;;;21.10;;
10469;SDS011;5282;47.052;15.458;2022-12-10T07:37:58;28.80;;;20.43;;
10469;SDS011;5282;47.052;15.458;2022-12-10T07:40:25;19.90;;;17.03;;
10469;SDS011;5282;47.052;15.458;2022-12-10T07:42:53;24.73;;;18.90;;
10469;SDS011;5282;47.052;15.458;2022-12-10T07:45:21;26.07;;;18.77;;
10469;SDS011;5282;47.052;15.458;2022-12-10T07:47:48;26.60;;;20.20;;
10469;SDS011;5282;47.052;15.458;2022-12-10T07:50:15;24.23;;;20.40;;
10469;SDS011;5282;47.052;15.458;2022-12-10T07:52:42;24.70;;;21.50;;
10469;SDS011;5282;47.052;15.458;2022-12-10T07:55:09;24.07;;;19.47;;
10469;SDS011;5282;47.052;15.458;2022-12-10T07:57:36;28.40;;;20.97;;
10469;SDS011;5282;47.052;15.458;2022-12-10T08:00:05;23.63;;;19.43;;
10469;SDS011;5282;47.052;15.458;2022-12-10T08:02:32;21.63;;;17.80;;
10469;SDS011;5282;47.052;15.458;2022-12-10T08:04:59;21.70;;;18.57;;
10469;SDS011;5282;47.052;15.458;2022-12-10T08:07:26;22.83;;;18.27;;
10469;SDS011;5282;47.052;15.458;2022-12-10T08:09:53;17.57;;;15.70;;
10469;SDS011;5282;47.052;15.458;2022-12-10T08:12:20;19.27;;;14.50;;
10469;SDS011;5282;47.052;15.458;2022-12-10T08:14:46;18.70;;;14.40;;
10469;SDS011;5282;47.052;15.458;2022-12-10T08:17:14;15.20;;;13.37;;
10469;SDS011;5282;47.052;15.458;2022-12-10T08:19:41;16.70;;;14.37;;
10469;SDS011;5282;47.052;15.458;2022-12-10T08:22:08;16.40;;;14.03;;
10469;SDS011;5282;47.052;15.458;2022-12-10T08:24:35;18.30;;;14.63;;
10469;SDS011;5282;47.052;15.458;2022-12-10T08:27:02;20.27;;;17.03;;
10469;SDS011;5282;47.052;15.458;2022-12-10T08:29:29;23.60;;;16.03;;
10469;SDS011;5282;47.052;15.458;2022-12-10T08:31:56;21.13;;;16.20;;
10469;SDS011;5282;47.052;15.458;2022-12-10T08:34:26;19.97;;;16.53;;
10469;SDS011;5282;47.052;15.458;2022-12-10T08:36:53;24.07;;;17.40;;
10469;SDS011;5282;47.052;15.458;2022-12-10T08:39:20;21.67;;;16.93;;
10469;SDS011;5282;47.052;15.458;2022-12-10T08:41:47;22.07;;;17.20;;
10469;SDS011;5282;47.052;15.458;2022-12-10T08:44:14;20.83;;;15.53;;
10469;SDS011;5282;47.052;15.458;2022-12-10T08:46:40;22.23;;;15.27;;
10469;SDS011;5282;47.052;15.458;2022-12-10T08:49:07;19.40;;;15.63;;
10469;SDS011;5282;47.052;15.458;2022-12-10T08:51:36;19.37;;;15.73;;
10469;SDS011;5282;47.052;15.458;2022-12-10T08:54:03;17.27;;;14.77;;
10469;SDS011;5282;47.052;15.458;2022-12-10T08:56:29;20.27;;;14.63;;
10469;SDS011;5282;47.052;15.458;2022-12-10T08:58:57;19.13;;;14.37;;
10469;SDS011;5282;47.052;15.458;2022-12-10T09:01:24;19.83;;;15.57;;
10469;SDS011;5282;47.052;15.458;2022-12-10T09:03:51;17.37;;;14.40;;
10469;SDS011;5282;47.052;15.458;2022-12-10T09:06:19;18.37;;;15.07;;
10469;SDS011;5282;47.052;15.458;2022-12-10T09:08:50;18.73;;;14.63;;
10469;SDS011;5282;47.052;15.458;2022-12-10T09:11:19;15.30;;;13.17;;
10469;SDS011;5282;47.052;15.458;2022-12-10T09:13:48;14.93;;;13.00;;
10469;SDS011;5282;47.052;15.458;2022-12-10T09:16:15;14.80;;;12.30;;
10469;SDS011;5282;47.052;15.458;2022-12-10T09:18:42;12.77;;;11.47;;
10469;SDS011;5282;47.052;15.458;2022-12-10T09:21:11;12.90;;;11.37;;
10469;SDS011;5282;47.052;15.458;2022-12-10T09:23:40;19.33;;;14.40;;
10469;SDS011;5282;47.052;15.458;2022-12-10T09:26:10;16.83;;;14.40;;
10469;SDS011;5282;47.052;15.458;2022-12-10T09:28:38;13.20;;;11.80;;
10469;SDS011;5282;47.052;15.458;2022-12-10T09:31:06;15.00;;;12.10;;
10469;SDS011;5282;47.052;15.458;2022-12-10T09:33:34;13.80;;;12.30;;
10469;SDS011;5282;47.052;15.458;2022-12-10T09:36:02;13.00;;;11.70;;
10469;SDS011;5282;47.052;15.458;2022-12-10T09:38:30;14.50;;;13.00;;
10469;SDS011;5282;47.052;15.458;2022-12-10T09:40:59;16.03;;;14.43;;
10469;SDS011;5282;47.052;15.458;2022-12-10T09:43:32;11.33;;;10.33;;
10469;SDS011;5282;47.052;15.458;2022-12-10T09:46:12;11.30;;;10.20;;
10469;SDS011;5282;47.052;15.458;2022-12-10T09:48:52;12.23;;;11.00;;
10469;SDS011;5282;47.052;15.458;2022-12-10T09:51:26;11.40;;;10.30;;
10469;SDS011;5282;47.052;15.458;2022-12-10T09:53:56;13.03;;;11.73;;
10469;SDS011;5282;47.052;15.458;2022-12-10T09:56:26;11.50;;;10.33;;
10469;SDS011;5282;47.052;15.458;2022-12-10T09:58:57;13.87;;;10.50;;
10469;SDS011;5282;47.052;15.458;2022-12-10T10:01:29;14.33;;;11.33;;
10469;SDS011;5282;47.052;15.458;2022-12-10T10:03:59;16.50;;;12.03;;
10469;SDS011;5282;47.052;15.458;2022-12-10T10:06:26;14.83;;;11.93;;
10469;SDS011;5282;47.052;15.458;2022-12-10T10:08:54;10.67;;;9.60;;
10469;SDS011;5282;47.052;15.458;2022-12-10T10:11:27;9.10;;;8.20;;
10469;SDS011;5282;47.052;15.458;2022-12-10T10:13:58;9.83;;;8.93;;
10469;SDS011;5282;47.052;15.458;2022-12-10T10:16:27;8.60;;;7.80;;
10469;SDS011;5282;47.052;15.458;2022-12-10T10:19:00;8.57;;;7.97;;
10469;SDS011;5282;47.052;15.458;2022-12-10T10:21:30;9.77;;;8.90;;
10469;SDS011;5282;47.052;15.458;2022-12-10T10:24:00;8.10;;;7.50;;
10469;SDS011;5282;47.052;15.458;2022-12-10T10:26:28;8.53;;;7.80;;
10469;SDS011;5282;47.052;15.458;2022-12-10T10:28:57;8.50;;;7.90;;
10469;SDS011;5282;47.052;15.458;2022-12-10T10:31:30;8.00;;;7.40;;
10469;SDS011;5282;47.052;15.458;2022-12-10T10:33:59;8.07;;;7.47;;
10469;SDS011;5282;47.052;15.458;2022-12-10T10:36:27;7.80;;;7.20;;
10469;SDS011;5282;47.052;15.458;2022-12-10T10:38:57;7.87;;;7.27;;
10469;SDS011;5282;47.052;15.458;2022-12-10T10:41:35;8.43;;;7.77;;
10469;SDS011;5282;47.052;15.458;2022-12-10T10:44:14;7.93;;;7.23;;
10469;SDS011;5282;47.052;15.458;2022-12-10T10:46:43;7.77;;;7.07;;
10469;SDS011;5282;47.052;15.458;2022-12-10T10:49:13;8.10;;;7.50;;
10469;SDS011;5282;47.052;15.458;2022-12-10T10:51:45;8.17;;;7.67;;
10469;SDS011;5282;47.052;15.458;2022-12-10T10:54:12;7.13;;;6.63;;
10469;SDS011;5282;47.052;15.458;2022-12-10T10:56:58;7.90;;;7.30;;
10469;SDS011;5282;47.052;15.458;2022-12-10T10:59:31;7.63;;;7.13;;
10469;SDS011;5282;47.052;15.458;2022-12-10T11:02:01;7.57;;;7.07;;
10469;SDS011;5282;47.052;15.458;2022-12-10T11:04:36;7.47;;;7.07;;
10469;SDS011;5282;47.052;15.458;2022-12-10T11:07:05;7.10;;;6.67;;
10469;SDS011;5282;47.052;15.458;2022-12-10T11:09:43;7.30;;;6.80;;
10469;SDS011;5282;47.052;15.458;2022-12-10T11:12:20;7.67;;;6.97;;
10469;SDS011;5282;47.052;15.458;2022-12-10T11:14:55;6.93;;;6.43;;
10469;SDS011;5282;47.052;15.458;2022-12-10T11:17:23;6.83;;;6.43;;
10469;SDS011;5282;47.052;15.458;2022-12-10T11:19:54;6.67;;;6.17;;
10469;SDS011;5282;47.052;15.458;2022-12-10T11:22:24;7.13;;;6.73;;
10469;SDS011;5282;47.052;15.458;2022-12-10T11:24:53;6.70;;;6.30;;
10469;SDS011;5282;47.052;15.458;2022-12-10T11:27:25;7.00;;;6.50;;
10469;SDS011;5282;47.052;15.458;2022-12-10T11:30:05;6.57;;;6.17;;
10469;SDS011;5282;47.052;15.458;2022-12-10T11:32:52;7.63;;;6.93;;
10469;SDS011;5282;47.052;15.458;2022-12-10T11:35:30;7.80;;;7.20;;
10469;SDS011;5282;47.052;15.458;2022-12-10T11:38:09;9.53;;;8.50;;
10469;SDS011;5282;47.052;15.458;2022-12-10T11:40:48;7.00;;;6.50;;
10469;SDS011;5282;47.052;15.458;2022-12-10T11:43:27;6.97;;;6.47;;
10469;SDS011;5282;47.052;15.458;2022-12-10T11:46:18;6.20;;;5.80;;
10469;SDS011;5282;47.052;15.458;2022-12-10T11:49:00;6.60;;;6.20;;
10469;SDS011;5282;47.052;15.458;2022-12-10T11:51:38;6.43;;;6.00;;
10469;SDS011;5282;47.052;15.458;2022-12-10T11:54:14;8.20;;;7.60;;
10469;SDS011;5282;47.052;15.458;2022-12-10T11:56:52;8.00;;;7.40;;
10469;SDS011;5282;47.052;15.458;2022-12-10T11:59:31;8.30;;;7.60;;
10469;SDS011;5282;47.052;15.458;2022-12-10T12:02:08;6.93;;;6.33;;
10469;SDS011;5282;47.052;15.458;2022-12-10T12:04:52;7.50;;;7.00;;
10469;SDS011;5282;47.052;15.458;2022-12-10T12:07:38;6.80;;;6.30;;
10469;SDS011;5282;47.052;15.458;2022-12-10T12:10:35;6.63;;;6.23;;
10469;SDS011;5282;47.052;15.458;2022-12-10T12:13:31;7.20;;;6.60;;
10469;SDS011;5282;47.052;15.458;2022-12-10T12:16:03;7.80;;;7.30;;
10469;SDS011;5282;47.052;15.458;2022-12-10T12:18:39;6.27;;;5.87;;
10469;SDS011;5282;47.052;15.458;2022-12-10T12:21:13;6.83;;;6.43;;
10469;SDS011;5282;47.052;15.458;2022-12-10T12:23:43;7.33;;;6.73;;
10469;SDS011;5282;47.052;15.458;2022-12-10T12:26:18;6.67;;;6.23;;
10469;SDS011;5282;47.052;15.458;2022-12-10T12:28:52;7.63;;;6.93;;
10469;SDS011;5282;47.052;15.458;2022-12-10T12:31:26;7.17;;;6.77;;
10469;SDS011;5282;47.052;15.458;2022-12-10T12:34:00;7.43;;;7.03;;
10469;SDS011;5282;47.052;15.458;2022-12-10T12:36:32;7.73;;;7.20;;
10469;SDS011;5282;47.052;15.458;2022-12-10T12:39:02;7.93;;;7.23;;
10469;SDS011;5282;47.052;15.458;2022-12-10T12:41:39;7.30;;;6.80;;
10469;SDS011;5282;47.052;15.458;2022-12-10T12:44:13;7.97;;;7.37;;
10469;SDS011;5282;47.052;15.458;2022-12-10T12:46:45;8.03;;;7.47;;
10469;SDS011;5282;47.052;15.458;2022-12-10T12:49:16;7.63;;;7.20;;
10469;SDS011;5282;47.052;15.458;2022-12-10T12:51:51;8.50;;;8.00;;
10469;SDS011;5282;47.052;15.458;2022-12-10T12:54:22;10.03;;;9.20;;
10469;SDS011;5282;47.052;15.458;2022-12-10T12:56:58;8.40;;;7.70;;
10469;SDS011;5282;47.052;15.458;2022-12-10T12:59:35;8.50;;;7.90;;
10469;SDS011;5282;47.052;15.458;2022-12-10T13:02:16;8.43;;;7.80;;
10469;SDS011;5282;47.052;15.458;2022-12-10T13:04:51;7.67;;;7.17;;
10469;SDS011;5282;47.052;15.458;2022-12-10T13:07:32;8.97;;;8.10;;
10469;SDS011;5282;47.052;15.458;2022-12-10T13:13:05;10.63;;;9.73;;
10469;SDS011;5282;47.052;15.458;2022-12-10T13:15:34;8.87;;;8.17;;
10469;SDS011;5282;47.052;15.458;2022-12-10T13:18:04;7.90;;;7.30;;
10469;SDS011;5282;47.052;15.458;2022-12-10T13:20:51;7.80;;;7.30;;
10469;SDS011;5282;47.052;15.458;2022-12-10T13:23:48;7.10;;;6.60;;
10469;SDS011;5282;47.052;15.458;2022-12-10T13:26:24;6.67;;;6.27;;
10469;SDS011;5282;47.052;15.458;2022-12-10T13:28:52;6.47;;;6.07;;
10469;SDS011;5282;47.052;15.458;2022-12-10T13:31:22;6.77;;;6.17;;
10469;SDS011;5282;47.052;15.458;2022-12-10T13:34:05;6.10;;;5.77;;
10469;SDS011;5282;47.052;15.458;2022-12-10T13:39:48;5.80;;;5.50;;
10469;SDS011;5282;47.052;15.458;2022-12-10T13:42:27;5.93;;;5.43;;
10469;SDS011;5282;47.052;15.458;2022-12-10T13:45:24;5.37;;;5.07;;
10469;SDS011;5282;47.052;15.458;2022-12-10T13:50:55;7.80;;;7.20;;
10469;SDS011;5282;47.052;15.458;2022-12-10T13:53:35;5.40;;;5.10;;
10469;SDS011;5282;47.052;15.458;2022-12-10T13:56:16;6.97;;;6.47;;
10469;SDS011;5282;47.052;15.458;2022-12-10T13:58:54;77.57;;;55.10;;
10469;SDS011;5282;47.052;15.458;2022-12-10T14:01:33;57.10;;;39.37;;
10469;SDS011;5282;47.052;15.458;2022-12-10T14:04:15;11.40;;;10.30;;
10469;SDS011;5282;47.052;15.458;2022-12-10T14:06:53;7.13;;;6.70;;
10469;SDS011;5282;47.052;15.458;2022-12-10T14:09:21;85.47;;;72.73;;
10469;SDS011;5282;47.052;15.458;2022-12-10T14:11:54;5.90;;;5.50;;
10469;SDS011;5282;47.052;15.458;2022-12-10T14:14:33;4.70;;;4.40;;
10469;SDS011;5282;47.052;15.458;2022-12-10T14:17:04;3.70;;;3.50;;
10469;SDS011;5282;47.052;15.458;2022-12-10T14:19:32;23.17;;;17.17;;
10469;SDS011;5282;47.052;15.458;2022-12-10T14:22:04;9.53;;;8.60;;
10469;SDS011;5282;47.052;15.458;2022-12-10T14:24:33;91.37;;;64.97;;
10469;SDS011;5282;47.052;15.458;2022-12-10T14:27:05;284.10;;;157.53;;
10469;SDS011;5282;47.052;15.458;2022-12-10T14:29:42;85.60;;;52.40;;
10469;SDS011;5282;47.052;15.458;2022-12-10T14:32:12;32.77;;;25.23;;
10469;SDS011;5282;47.052;15.458;2022-12-10T14:34:40;33.80;;;30.30;;
10469;SDS011;5282;47.052;15.458;2022-12-10T14:37:09;6.43;;;5.97;;
10469;SDS011;5282;47.052;15.458;2022-12-10T14:39:40;6.43;;;6.03;;
10469;SDS011;5282;47.052;15.458;2022-12-10T14:42:12;5.90;;;5.40;;
10469;SDS011;5282;47.052;15.458;2022-12-10T14:44:42;5.60;;;5.30;;
10469;SDS011;5282;47.052;15.458;2022-12-10T14:47:12;5.70;;;5.40;;
10469;SDS011;5282;47.052;15.458;2022-12-10T14:49:41;5.80;;;5.43;;
10469;SDS011;5282;47.052;15.458;2022-12-10T14:52:11;4.80;;;4.60;;
10469;SDS011;5282;47.052;15.458;2022-12-10T14:54:39;4.87;;;4.67;;
10469;SDS011;5282;47.052;15.458;2022-12-10T14:57:07;4.40;;;4.10;;
10469;SDS011;5282;47.052;15.458;2022-12-10T14:59:40;5.27;;;5.07;;